Time;durP1;ratioP1;P1;durP2;ratioP2;P2;SDS_P1;SDS_P2;PMS_P1;PMS_P2;Temp;Humidity;BMP_temperature;BMP_pressure;BME280_temperature;BME280_humidity;BME280_pressure;Samples;Min_cycle;Max_cycle;Signal;HPM_P1;HPM_P2
2022/05/11 00:00:55;;;;;;;7.17;5.30;;;;;;;;;;5067103;28;20419;-84
2022/05/11 00:03:21;;;;;;;6.93;5.63;;;;;;;;;;5066718;28;20486;-86
2022/05/11 00:05:47;;;;;;;6.20;5.33;;;;;;;;;;5065312;28;20479;-85
2022/05/11 00:08:13;;;;;;;7.23;6.27;;;;;;;;;;5065916;28;20458;-85
2022/05/11 00:10:40;;;;;;;9.00;5.70;;;;;;;;;;5083786;28;20414;-85
2022/05/11 00:13:07;;;;;;;7.53;6.10;;;;;;;;;;5065071;28;20396;-85
2022/05/11 00:15:33;;;;;;;11.13;6.00;;;;;;;;;;5065069;28;20504;-86
2022/05/11 00:18:00;;;;;;;8.40;5.87;;;;;;;;;;5064735;28;20417;-86
2022/05/11 00:20:26;;;;;;;8.43;6.10;;;;;;;;;;5084026;28;20408;-86
2022/05/11 00:22:56;;;;;;;7.20;6.23;;;;;;;;;;5065557;28;20825;-87
2022/05/11 00:25:25;;;;;;;6.23;5.57;;;;;;;;;;5065253;28;20471;-84
2022/05/11 00:27:52;;;;;;;7.60;6.40;;;;;;;;;;5065189;28;20404;-85
2022/05/11 00:30:18;;;;;;;7.07;5.87;;;;;;;;;;5065824;28;20409;-85
2022/05/11 00:32:44;;;;;;;6.37;5.13;;;;;;;;;;5083517;28;20447;-85
2022/05/11 00:35:10;;;;;;;7.23;6.00;;;;;;;;;;5082536;28;20454;-84
2022/05/11 00:37:36;;;;;;;7.53;6.23;;;;;;;;;;5083388;28;20842;-86
2022/05/11 00:40:03;;;;;;;8.10;5.57;;;;;;;;;;5082560;28;20468;-83
2022/05/11 00:42:30;;;;;;;7.90;6.70;;;;;;;;;;5064428;28;20419;-85
2022/05/11 00:44:56;;;;;;;6.93;6.20;;;;;;;;;;5064762;28;20512;-85
2022/05/11 00:47:34;;;;;;;7.57;6.17;;;;;;;;;;5083024;28;20921;-85
2022/05/11 00:50:06;;;;;;;8.00;6.80;;;;;;;;;;5082632;28;20432;-85
2022/05/11 00:52:35;;;;;;;13.23;5.93;;;;;;;;;;5065106;28;20397;-85
2022/05/11 00:55:05;;;;;;;7.77;6.80;;;;;;;;;;5064718;28;20502;-85
2022/05/11 00:57:37;;;;;;;7.40;6.00;;;;;;;;;;5064076;28;20422;-85
2022/05/11 01:00:06;;;;;;;8.10;7.03;;;;;;;;;;5082517;28;20411;-85
2022/05/11 01:02:32;;;;;;;9.10;7.60;;;;;;;;;;5064071;28;20925;-84
2022/05/11 01:05:01;;;;;;;10.03;7.80;;;;;;;;;;5080529;28;20457;-83
2022/05/11 01:07:28;;;;;;;8.87;7.43;;;;;;;;;;5061699;28;20948;-84
2022/05/11 01:09:54;;;;;;;8.00;6.53;;;;;;;;;;5060725;28;20388;-84
2022/05/11 01:12:22;;;;;;;9.50;6.60;;;;;;;;;;5079460;28;20411;-83
2022/05/11 01:14:51;;;;;;;8.37;7.50;;;;;;;;;;5061508;28;20493;-84
2022/05/11 01:17:18;;;;;;;7.70;6.60;;;;;;;;;;5080216;28;20400;-84
2022/05/11 01:19:45;;;;;;;9.43;6.50;;;;;;;;;;5062239;28;20405;-84
2022/05/11 01:22:11;;;;;;;6.70;5.90;;;;;;;;;;5062350;28;20419;-83
2022/05/11 01:24:39;;;;;;;7.90;7.10;;;;;;;;;;5070664;28;20471;-84
2022/05/11 01:27:23;;;;;;;8.67;5.70;;;;;;;;;;5088335;28;20405;-85
2022/05/11 01:29:49;;;;;;;6.83;5.70;;;;;;;;;;5082319;28;20396;-86
2022/05/11 01:32:15;;;;;;;7.27;6.10;;;;;;;;;;5064483;28;20409;-86
2022/05/11 01:34:42;;;;;;;8.63;5.47;;;;;;;;;;5063383;28;20844;-85
2022/05/11 01:37:08;;;;;;;6.93;6.23;;;;;;;;;;5063253;28;20413;-86
2022/05/11 01:39:34;;;;;;;5.77;5.17;;;;;;;;;;5062670;28;20404;-85
2022/05/11 01:42:00;;;;;;;6.70;5.80;;;;;;;;;;5063305;28;20469;-85
2022/05/11 01:44:26;;;;;;;6.70;5.17;;;;;;;;;;5062468;28;20510;-85
2022/05/11 01:46:53;;;;;;;6.67;5.83;;;;;;;;;;5063194;28;20408;-86
2022/05/11 01:49:21;;;;;;;8.23;5.30;;;;;;;;;;5081252;28;20409;-84
2022/05/11 01:51:47;;;;;;;6.40;5.40;;;;;;;;;;5081502;28;20408;-86
2022/05/11 01:54:14;;;;;;;7.27;5.10;;;;;;;;;;5057807;28;20962;-85
2022/05/11 01:56:40;;;;;;;5.70;5.07;;;;;;;;;;5044809;28;20402;-85
2022/05/11 01:59:06;;;;;;;9.40;6.07;;;;;;;;;;5040944;28;20429;-85
2022/05/11 02:01:34;;;;;;;5.93;5.33;;;;;;;;;;5024087;28;20429;-85
2022/05/11 02:04:00;;;;;;;5.80;5.23;;;;;;;;;;5022654;28;20427;-85
2022/05/11 02:09:12;;;;;;;7.53;5.10;;;;;;;;;;5041690;28;20998;-84
2022/05/11 02:11:38;;;;;;;10.93;5.40;;;;;;;;;;5022965;28;20541;-85
2022/05/11 02:14:05;;;;;;;5.97;5.37;;;;;;;;;;5023522;28;20495;-85
2022/05/11 02:16:32;;;;;;;5.33;4.83;;;;;;;;;;5040640;28;20394;-85
2022/05/11 02:18:58;;;;;;;9.00;5.43;;;;;;;;;;5023005;28;20853;-85
2022/05/11 02:21:24;;;;;;;5.70;5.10;;;;;;;;;;5022469;28;20413;-85
2022/05/11 02:23:51;;;;;;;7.30;4.90;;;;;;;;;;5022607;28;20407;-85
2022/05/11 02:26:19;;;;;;;5.90;5.10;;;;;;;;;;5040669;28;20466;-86
2022/05/11 02:28:45;;;;;;;8.37;5.93;;;;;;;;;;5006271;28;20486;-86
2022/05/11 02:31:11;;;;;;;5.43;4.90;;;;;;;;;;5039883;28;20477;-86
2022/05/11 02:33:37;;;;;;;5.93;5.33;;;;;;;;;;5039835;28;20409;-85
2022/05/11 02:36:03;;;;;;;5.93;4.90;;;;;;;;;;5040751;28;20456;-84
2022/05/11 02:38:33;;;;;;;5.60;5.07;;;;;;;;;;5039993;28;20421;-85
2022/05/11 02:41:00;;;;;;;6.10;5.50;;;;;;;;;;5039713;28;20419;-85
2022/05/11 02:43:26;;;;;;;7.40;5.30;;;;;;;;;;5021760;28;20407;-86
2022/05/11 02:45:52;;;;;;;7.43;6.37;;;;;;;;;;5039580;28;20549;-84
2022/05/11 02:48:20;;;;;;;6.67;5.07;;;;;;;;;;5045980;28;20403;-85
2022/05/11 02:50:48;;;;;;;6.40;4.80;;;;;;;;;;5041263;28;20501;-85
2022/05/11 02:53:14;;;;;;;7.07;5.20;;;;;;;;;;5023174;28;20418;-83
2022/05/11 02:55:42;;;;;;;7.27;5.50;;;;;;;;;;5039750;28;20423;-85
2022/05/11 02:58:08;;;;;;;6.30;5.30;;;;;;;;;;5021990;28;20469;-84
2022/05/11 03:00:35;;;;;;;7.47;5.60;;;;;;;;;;5040240;28;20403;-86
2022/05/11 03:03:02;;;;;;;7.57;5.20;;;;;;;;;;5039394;28;20407;-83
2022/05/11 03:05:28;;;;;;;7.67;5.13;;;;;;;;;;5022368;28;20482;-84
2022/05/11 03:07:54;;;;;;;7.30;5.30;;;;;;;;;;5021751;28;20949;-85
2022/05/11 03:10:21;;;;;;;5.80;4.87;;;;;;;;;;5040120;28;20891;-84
2022/05/11 03:12:47;;;;;;;8.33;5.60;;;;;;;;;;5022018;28;20417;-84
2022/05/11 03:15:13;;;;;;;9.63;5.93;;;;;;;;;;5039376;28;20798;-84
2022/05/11 03:17:39;;;;;;;9.80;6.93;;;;;;;;;;5039466;28;20883;-84
2022/05/11 03:20:06;;;;;;;7.77;4.87;;;;;;;;;;5040230;28;20695;-85
2022/05/11 03:22:32;;;;;;;7.83;4.63;;;;;;;;;;5039892;28;20414;-85
2022/05/11 03:24:58;;;;;;;6.23;5.20;;;;;;;;;;5021994;28;20627;-85
2022/05/11 03:27:24;;;;;;;6.30;5.13;;;;;;;;;;5022788;28;20450;-84
2022/05/11 03:29:51;;;;;;;6.43;5.13;;;;;;;;;;5021863;28;20413;-85
2022/05/11 03:35:04;;;;;;;7.67;4.90;;;;;;;;;;5039643;28;20429;-83
2022/05/11 03:37:30;;;;;;;9.93;4.93;;;;;;;;;;5039556;28;20398;-84
2022/05/11 03:40:00;;;;;;;6.10;4.20;;;;;;;;;;5029305;28;20793;-84
2022/05/11 03:42:30;;;;;;;5.63;4.60;;;;;;;;;;5044106;28;20417;-85
2022/05/11 03:45:05;;;;;;;4.97;4.47;;;;;;;;;;5073338;28;20469;-84
2022/05/11 03:47:32;;;;;;;6.40;5.10;;;;;;;;;;5054918;28;20417;-85
2022/05/11 03:49:58;;;;;;;8.63;4.80;;;;;;;;;;5071565;28;20413;-84
2022/05/11 03:52:24;;;;;;;7.63;5.20;;;;;;;;;;5073170;28;20471;-83
2022/05/11 03:54:50;;;;;;;6.07;4.90;;;;;;;;;;5071240;28;20434;-84
2022/05/11 03:57:16;;;;;;;6.00;4.97;;;;;;;;;;5070434;28;20386;-83
2022/05/11 03:59:42;;;;;;;6.90;4.50;;;;;;;;;;5055072;28;20473;-83
2022/05/11 04:02:12;;;;;;;7.47;4.83;;;;;;;;;;5076003;28;20415;-84
2022/05/11 04:04:39;;;;;;;6.37;5.03;;;;;;;;;;5055502;28;20483;-83
2022/05/11 04:07:05;;;;;;;7.27;5.53;;;;;;;;;;5069621;28;20417;-83
2022/05/11 04:09:31;;;;;;;5.67;5.10;;;;;;;;;;5069827;28;20410;-84
2022/05/11 04:11:57;;;;;;;5.33;4.10;;;;;;;;;;5070231;28;20429;-85
2022/05/11 04:14:23;;;;;;;5.20;4.47;;;;;;;;;;5052475;28;20427;-84
2022/05/11 04:16:58;;;;;;;7.10;4.60;;;;;;;;;;5069791;28;20779;-83
2022/05/11 04:19:24;;;;;;;5.57;4.53;;;;;;;;;;5049872;28;20508;-83
2022/05/11 04:21:51;;;;;;;5.47;4.57;;;;;;;;;;5052813;28;20468;-85
2022/05/11 04:24:17;;;;;;;6.13;4.73;;;;;;;;;;5069879;28;20441;-83
2022/05/11 04:26:43;;;;;;;5.60;4.53;;;;;;;;;;5070959;28;20882;-84
2022/05/11 04:29:12;;;;;;;4.80;4.23;;;;;;;;;;5071385;28;20420;-83
2022/05/11 04:31:38;;;;;;;6.00;4.60;;;;;;;;;;5053334;28;20471;-84
2022/05/11 04:34:04;;;;;;;6.70;4.77;;;;;;;;;;5069128;28;20460;-83
2022/05/11 04:36:30;;;;;;;8.63;4.50;;;;;;;;;;5050427;28;20421;-83
2022/05/11 04:38:57;;;;;;;6.43;4.80;;;;;;;;;;5047424;28;20425;-83
2022/05/11 04:41:23;;;;;;;6.67;5.07;;;;;;;;;;5056791;28;20416;-83
2022/05/11 04:43:49;;;;;;;9.27;6.03;;;;;;;;;;5042220;28;20942;-85
2022/05/11 04:46:16;;;;;;;9.80;5.13;;;;;;;;;;5062515;28;20843;-83
2022/05/11 04:48:45;;;;;;;6.13;4.97;;;;;;;;;;5061750;28;20413;-84
2022/05/11 04:51:12;;;;;;;9.40;4.87;;;;;;;;;;5044683;28;20479;-84
2022/05/11 04:53:38;;;;;;;5.53;4.40;;;;;;;;;;5061516;28;20998;-85
2022/05/11 04:56:04;;;;;;;6.13;4.17;;;;;;;;;;5043451;28;20441;-84
2022/05/11 04:58:30;;;;;;;8.23;4.80;;;;;;;;;;5043888;28;20402;-84
2022/05/11 05:00:56;;;;;;;11.43;5.60;;;;;;;;;;5061348;28;20460;-85
2022/05/11 05:03:23;;;;;;;6.57;4.90;;;;;;;;;;5044405;28;20922;-85
2022/05/11 05:05:50;;;;;;;6.17;4.40;;;;;;;;;;5061643;28;20485;-86
2022/05/11 05:08:16;;;;;;;8.53;4.87;;;;;;;;;;5060863;28;20402;-85
2022/05/11 05:10:42;;;;;;;4.83;4.33;;;;;;;;;;5061866;28;20402;-85
2022/05/11 05:13:11;;;;;;;7.23;4.53;;;;;;;;;;5043932;28;20425;-85
2022/05/11 05:15:42;;;;;;;7.00;3.87;;;;;;;;;;5061766;28;20891;-85
2022/05/11 05:18:08;;;;;;;7.57;4.70;;;;;;;;;;5044455;28;20432;-85
2022/05/11 05:20:35;;;;;;;4.17;3.53;;;;;;;;;;5061958;28;20925;-83
2022/05/11 05:23:01;;;;;;;5.00;4.23;;;;;;;;;;5061984;28;20416;-84
2022/05/11 05:25:27;;;;;;;6.90;4.37;;;;;;;;;;5053450;23;20530;-83
2022/05/11 05:31:04;;;;;;;6.83;5.27;;;;;;;;;;5021771;28;20900;-83
2022/05/11 05:33:26;;;;;;;6.87;4.77;;;;;;;;;;5021992;28;20430;-83
2022/05/11 05:35:52;;;;;;;13.00;4.53;;;;;;;;;;5021996;28;20438;-83
2022/05/11 05:38:18;;;;;;;7.50;4.53;;;;;;;;;;5022485;28;20914;-83
2022/05/11 05:40:46;;;;;;;5.80;4.00;;;;;;;;;;5022493;28;20396;-83
2022/05/11 05:43:12;;;;;;;7.53;4.67;;;;;;;;;;5022072;28;20426;-82
2022/05/11 05:45:38;;;;;;;7.70;4.33;;;;;;;;;;5022306;28;20502;-83
2022/05/11 05:48:04;;;;;;;5.70;4.33;;;;;;;;;;5024756;28;20407;-82
2022/05/11 05:50:30;;;;;;;5.73;4.47;;;;;;;;;;5031992;28;20911;-82
2022/05/11 05:52:56;;;;;;;8.10;4.57;;;;;;;;;;5027669;28;20418;-82
2022/05/11 05:55:23;;;;;;;6.60;4.93;;;;;;;;;;5022388;28;20467;-83
2022/05/11 05:57:49;;;;;;;5.53;3.80;;;;;;;;;;5022389;28;20403;-84
2022/05/11 06:00:15;;;;;;;10.93;4.40;;;;;;;;;;5022571;28;20399;-83
2022/05/11 06:02:41;;;;;;;5.40;4.30;;;;;;;;;;5022065;28;20403;-84
2022/05/11 06:05:07;;;;;;;5.73;3.73;;;;;;;;;;5021654;28;20455;-87
2022/05/11 06:07:34;;;;;;;6.63;3.70;;;;;;;;;;5021591;28;20808;-82
2022/05/11 06:10:00;;;;;;;6.17;4.10;;;;;;;;;;5021919;28;20869;-83
2022/05/11 06:12:27;;;;;;;6.93;3.80;;;;;;;;;;5022600;28;20861;-83
2022/05/11 06:14:55;;;;;;;6.10;3.63;;;;;;;;;;5023071;28;20427;-83
2022/05/11 06:17:25;;;;;;;10.50;5.00;;;;;;;;;;5023190;28;20403;-83
2022/05/11 06:19:52;;;;;;;5.70;3.83;;;;;;;;;;5022387;28;20387;-83
2022/05/11 06:22:18;;;;;;;4.30;3.90;;;;;;;;;;5022359;28;20430;-83
2022/05/11 06:24:44;;;;;;;4.83;3.90;;;;;;;;;;5021022;28;20474;-83
2022/05/11 06:27:18;;;;;;;6.03;3.80;;;;;;;;;;5021340;28;20396;-81
2022/05/11 06:29:54;;;;;;;5.90;3.77;;;;;;;;;;5020974;28;20388;-83
2022/05/11 06:32:22;;;;;;;5.07;3.37;;;;;;;;;;5021265;28;20411;-83
2022/05/11 06:34:48;;;;;;;6.53;3.53;;;;;;;;;;5021727;28;20485;-84
2022/05/11 06:37:14;;;;;;;6.43;4.10;;;;;;;;;;5021258;28;20431;-84
2022/05/11 06:39:41;;;;;;;8.00;4.17;;;;;;;;;;5021330;28;20459;-84
2022/05/11 06:42:11;;;;;;;5.43;4.07;;;;;;;;;;5020790;28;20411;-84
2022/05/11 06:44:37;;;;;;;4.03;3.53;;;;;;;;;;5003826;28;20515;-84
2022/05/11 06:47:04;;;;;;;7.83;3.77;;;;;;;;;;5021160;28;20411;-84
2022/05/11 06:49:30;;;;;;;4.60;3.40;;;;;;;;;;5020697;28;20922;-83
2022/05/11 06:51:57;;;;;;;4.70;3.90;;;;;;;;;;5018284;28;20418;-83
2022/05/11 06:59:54;;;;;;;4.23;3.73;;;;;;;;;;5017481;28;20386;-83
2022/05/11 07:02:20;;;;;;;4.60;3.67;;;;;;;;;;5016872;28;20952;-83
2022/05/11 07:04:48;;;;;;;5.53;4.33;;;;;;;;;;5016001;28;20520;-84
2022/05/11 07:07:14;;;;;;;4.77;3.80;;;;;;;;;;5007871;28;20403;-81
2022/05/11 07:09:40;;;;;;;5.50;4.23;;;;;;;;;;5004304;28;20495;-83
2022/05/11 07:12:25;;;;;;;5.40;3.73;;;;;;;;;;5015149;28;20407;-80
2022/05/11 07:14:53;;;;;;;5.77;3.73;;;;;;;;;;5012791;28;20438;-82
2022/05/11 07:17:31;;;;;;;4.20;3.47;;;;;;;;;;5011128;28;20495;-83
2022/05/11 07:19:58;;;;;;;6.23;4.33;;;;;;;;;;5023591;28;20411;-80
2022/05/11 07:22:24;;;;;;;8.30;3.77;;;;;;;;;;5004842;28;20447;-83
2022/05/11 07:24:50;;;;;;;6.40;4.33;;;;;;;;;;5019543;28;20471;-83
2022/05/11 07:27:18;;;;;;;4.70;3.67;;;;;;;;;;5011536;28;20416;-82
2022/05/11 07:29:44;;;;;;;6.27;4.50;;;;;;;;;;5013985;28;20414;-83
2022/05/11 07:32:10;;;;;;;4.57;4.10;;;;;;;;;;5003774;28;20479;-83
2022/05/11 07:34:38;;;;;;;5.50;4.23;;;;;;;;;;5010760;28;20435;-83
2022/05/11 07:37:05;;;;;;;7.30;4.50;;;;;;;;;;5022105;28;20435;-82
2022/05/11 07:39:31;;;;;;;7.03;4.03;;;;;;;;;;5012523;28;20419;-83
2022/05/11 07:41:58;;;;;;;3.57;2.90;;;;;;;;;;5022775;28;20431;-82
2022/05/11 07:44:25;;;;;;;4.30;3.67;;;;;;;;;;5004889;28;20396;-83
2022/05/11 07:46:51;;;;;;;5.50;4.63;;;;;;;;;;4996798;28;20420;-83
2022/05/11 07:49:18;;;;;;;7.67;3.63;;;;;;;;;;5010648;28;20407;-83
2022/05/11 07:51:45;;;;;;;6.37;3.70;;;;;;;;;;5006767;28;20404;-82
2022/05/11 07:54:12;;;;;;;5.07;4.57;;;;;;;;;;5017832;28;20407;-84
2022/05/11 08:00:06;;;;;;;6.80;4.40;;;;;;;;;;5009955;28;20404;-83
2022/05/11 08:02:12;;;;;;;6.23;4.00;;;;;;;;;;5013299;28;20487;-83
2022/05/11 08:04:39;;;;;;;6.10;4.30;;;;;;;;;;5002695;28;20466;-82
2022/05/11 08:07:05;;;;;;;4.50;3.93;;;;;;;;;;5009724;28;20770;-81
2022/05/11 08:09:31;;;;;;;4.30;3.37;;;;;;;;;;5010969;28;20518;-82
2022/05/11 08:11:57;;;;;;;4.90;3.60;;;;;;;;;;5003386;28;20436;-82
2022/05/11 08:14:23;;;;;;;5.20;3.43;;;;;;;;;;4997812;28;20420;-82
2022/05/11 08:16:52;;;;;;;4.70;3.73;;;;;;;;;;5004843;28;20415;-82
2022/05/11 08:19:19;;;;;;;4.93;4.20;;;;;;;;;;4994399;28;20478;-82
2022/05/11 08:21:46;;;;;;;4.00;3.60;;;;;;;;;;5015317;28;20399;-82
2022/05/11 08:24:13;;;;;;;4.37;3.53;;;;;;;;;;5005950;28;20424;-82
2022/05/11 08:26:40;;;;;;;5.33;3.43;;;;;;;;;;5000059;28;20463;-82
2022/05/11 08:29:06;;;;;;;4.40;3.90;;;;;;;;;;5013005;28;20929;-84
2022/05/11 08:34:17;;;;;;;4.63;3.40;;;;;;;;;;5020436;28;20442;-82
2022/05/11 08:36:45;;;;;;;4.00;3.60;;;;;;;;;;5010260;28;20418;-83
2022/05/11 08:39:12;;;;;;;4.20;3.40;;;;;;;;;;5024246;28;20963;-83
2022/05/11 08:41:49;;;;;;;5.33;3.70;;;;;;;;;;5010752;28;20408;-83
2022/05/11 08:44:23;;;;;;;6.30;3.40;;;;;;;;;;5026207;28;20403;-82
2022/05/11 08:46:56;;;;;;;4.33;3.00;;;;;;;;;;5022468;28;20397;-81
2022/05/11 08:49:42;;;;;;;5.90;3.97;;;;;;;;;;5001785;28;20439;-81
2022/05/11 08:52:23;;;;;;;6.83;3.10;;;;;;;;;;5012432;28;20419;-83
2022/05/11 08:54:53;;;;;;;3.93;3.53;;;;;;;;;;5007165;28;20475;-81
2022/05/11 08:57:23;;;;;;;9.40;3.53;;;;;;;;;;5018211;28;20403;-83
2022/05/11 08:59:51;;;;;;;4.73;3.80;;;;;;;;;;5009459;28;20427;-83
2022/05/11 09:02:42;;;;;;;3.87;3.47;;;;;;;;;;5020102;28;20411;-83
2022/05/11 09:05:08;;;;;;;5.70;4.27;;;;;;;;;;5010946;28;20463;-84
2022/05/11 09:07:39;;;;;;;4.73;3.40;;;;;;;;;;5010190;28;20436;-82
2022/05/11 09:10:06;;;;;;;4.80;3.70;;;;;;;;;;5019935;28;20412;-82
2022/05/11 09:12:32;;;;;;;7.47;3.50;;;;;;;;;;5019353;28;20412;-84
2022/05/11 09:14:59;;;;;;;4.27;3.30;;;;;;;;;;5012134;28;20502;-84
2022/05/11 09:17:33;;;;;;;5.20;3.70;;;;;;;;;;5016330;28;20428;-83
2022/05/11 09:20:13;;;;;;;4.00;3.60;;;;;;;;;;5022880;28;20457;-84
2022/05/11 09:22:55;;;;;;;4.30;3.20;;;;;;;;;;5006906;28;20408;-84
2022/05/11 09:25:22;;;;;;;5.10;3.60;;;;;;;;;;5012292;28;20472;-84
2022/05/11 09:27:49;;;;;;;6.33;3.40;;;;;;;;;;5017863;28;20407;-85
2022/05/11 09:30:18;;;;;;;5.00;3.87;;;;;;;;;;5013770;28;20436;-84
2022/05/11 09:32:45;;;;;;;3.70;3.33;;;;;;;;;;5020213;28;20436;-83
2022/05/11 09:35:11;;;;;;;4.37;3.23;;;;;;;;;;5003254;28;20425;-82
2022/05/11 09:37:37;;;;;;;4.13;3.70;;;;;;;;;;4998126;28;20415;-83
2022/05/11 09:40:03;;;;;;;7.63;3.63;;;;;;;;;;4989303;28;20423;-90
2022/05/11 09:42:32;;;;;;;3.40;3.10;;;;;;;;;;5025170;28;20431;-82
2022/05/11 09:44:58;;;;;;;6.37;3.30;;;;;;;;;;5016521;28;20455;-82
2022/05/11 09:47:29;;;;;;;5.93;3.70;;;;;;;;;;5012355;28;20418;-82
2022/05/11 09:49:56;;;;;;;6.63;3.70;;;;;;;;;;5006017;28;20772;-82
2022/05/11 09:52:34;;;;;;;5.33;3.77;;;;;;;;;;5018836;28;20412;-83
2022/05/11 09:55:01;;;;;;;4.90;3.27;;;;;;;;;;4992051;28;20854;-83
2022/05/11 09:57:28;;;;;;;6.30;3.43;;;;;;;;;;5010806;28;20408;-82
2022/05/11 10:00:13;;;;;;;4.07;3.30;;;;;;;;;;4998382;28;20885;-83
2022/05/11 10:02:40;;;;;;;4.80;3.20;;;;;;;;;;5015410;28;20522;-84
2022/05/11 10:05:09;;;;;;;5.37;3.37;;;;;;;;;;5009234;28;20463;-84
2022/05/11 10:07:45;;;;;;;4.80;3.30;;;;;;;;;;5007592;28;20490;-83
2022/05/11 10:10:32;;;;;;;4.27;3.30;;;;;;;;;;5017620;28;20866;-84
2022/05/11 10:13:03;;;;;;;5.60;3.23;;;;;;;;;;5008961;28;20410;-84
2022/05/11 10:24:10;;;;;;;7.33;3.33;;;;;;;;;;4998967;28;20384;-84
2022/05/11 10:26:44;;;;;;;3.80;3.33;;;;;;;;;;5014612;28;20556;-83
2022/05/11 10:29:18;;;;;;;6.10;3.37;;;;;;;;;;5008888;28;20400;-85
2022/05/11 10:31:54;;;;;;;5.30;2.80;;;;;;;;;;5019465;28;20396;-83
2022/05/11 10:34:40;;;;;;;4.37;3.20;;;;;;;;;;5006313;28;20889;-84
2022/05/11 10:37:07;;;;;;;4.33;3.13;;;;;;;;;;5007810;28;20404;-84
2022/05/11 10:39:33;;;;;;;7.60;3.43;;;;;;;;;;5007195;28;20418;-83
2022/05/11 10:42:05;;;;;;;9.87;2.67;;;;;;;;;;5017003;28;20404;-82
2022/05/11 10:44:46;;;;;;;7.70;3.50;;;;;;;;;;5031859;28;20414;-83
2022/05/11 10:47:33;;;;;;;6.20;3.00;;;;;;;;;;5021753;28;20411;-83
2022/05/11 10:50:09;;;;;;;4.33;3.00;;;;;;;;;;5002874;28;20413;-83
2022/05/11 10:52:55;;;;;;;4.30;2.47;;;;;;;;;;5015688;28;20403;-84
2022/05/11 10:55:28;;;;;;;4.07;2.57;;;;;;;;;;5014871;28;20497;-83
2022/05/11 10:58:07;;;;;;;4.13;2.93;;;;;;;;;;5000634;28;20415;-84
2022/05/11 11:00:37;;;;;;;6.27;3.23;;;;;;;;;;5007356;28;20421;-84
2022/05/11 11:03:09;;;;;;;2.60;2.30;;;;;;;;;;5014267;28;20833;-84
2022/05/11 11:08:47;;;;;;;4.90;2.97;;;;;;;;;;5007978;28;20466;-84
2022/05/11 11:11:43;;;;;;;4.10;2.70;;;;;;;;;;5016292;28;20401;-84
2022/05/11 11:14:11;;;;;;;3.40;2.73;;;;;;;;;;5018756;28;20415;-84
2022/05/11 11:16:38;;;;;;;6.20;2.40;;;;;;;;;;4999679;28;20434;-83
2022/05/11 11:19:06;;;;;;;3.70;2.63;;;;;;;;;;5026078;28;20415;-82
2022/05/11 11:21:33;;;;;;;5.30;2.70;;;;;;;;;;5011350;28;20405;-82
2022/05/11 11:24:13;;;;;;;4.17;2.93;;;;;;;;;;5020521;28;20415;-84
2022/05/11 11:26:41;;;;;;;7.70;2.73;;;;;;;;;;5010026;28;20466;-83
2022/05/11 11:29:07;;;;;;;4.30;2.60;;;;;;;;;;5015367;28;20759;-85
2022/05/11 11:31:53;;;;;;;3.57;2.50;;;;;;;;;;5016758;28;20422;-84
2022/05/11 11:34:22;;;;;;;4.93;2.50;;;;;;;;;;5007169;28;20400;-83
2022/05/11 11:36:48;;;;;;;4.50;3.10;;;;;;;;;;5017692;28;20454;-84
2022/05/11 11:39:34;;;;;;;5.30;2.60;;;;;;;;;;5014751;28;20427;-82
2022/05/11 11:42:02;;;;;;;4.57;3.10;;;;;;;;;;5010395;28;20404;-82
2022/05/11 11:44:30;;;;;;;4.47;2.47;;;;;;;;;;5019935;28;20412;-84
2022/05/11 11:46:57;;;;;;;3.90;2.60;;;;;;;;;;5009821;28;20793;-82
2022/05/11 11:49:27;;;;;;;3.07;2.43;;;;;;;;;;5011777;28;20494;-87
2022/05/11 11:52:01;;;;;;;3.50;2.70;;;;;;;;;;5016958;28;20411;-83
2022/05/11 11:54:42;;;;;;;4.90;2.27;;;;;;;;;;5008913;28;20415;-83
2022/05/11 11:57:26;;;;;;;4.37;2.37;;;;;;;;;;5014707;28;20475;-83
2022/05/11 11:59:54;;;;;;;4.77;2.87;;;;;;;;;;5019951;28;20391;-83
2022/05/11 12:02:39;;;;;;;4.17;2.40;;;;;;;;;;5022394;28;20800;-83
2022/05/11 12:05:08;;;;;;;2.87;2.33;;;;;;;;;;4995719;28;20459;-82
2022/05/11 12:16:05;;;;;;;3.00;2.20;;;;;;;;;;5009710;28;20789;-83
2022/05/11 12:18:36;;;;;;;3.63;2.10;;;;;;;;;;5024282;28;20399;-83
2022/05/11 12:21:03;;;;;;;2.97;2.10;;;;;;;;;;5015653;28;20881;-83
2022/05/11 12:23:37;;;;;;;3.33;2.23;;;;;;;;;;5015312;28;20491;-83
2022/05/11 12:26:10;;;;;;;3.13;2.10;;;;;;;;;;5006746;28;20475;-86
2022/05/11 12:28:36;;;;;;;4.10;2.23;;;;;;;;;;5023531;28;20399;-82
2022/05/11 12:31:02;;;;;;;4.43;2.10;;;;;;;;;;5016640;28;20407;-82
2022/05/11 12:33:33;;;;;;;4.83;2.20;;;;;;;;;;5016327;28;20419;-82
2022/05/11 12:35:59;;;;;;;3.73;2.03;;;;;;;;;;5022904;28;20959;-81
2022/05/11 12:38:30;;;;;;;3.30;1.93;;;;;;;;;;5013694;28;20410;-81
2022/05/11 12:40:57;;;;;;;3.70;2.03;;;;;;;;;;5023173;28;20416;-82
2022/05/11 12:43:25;;;;;;;2.67;2.00;;;;;;;;;;5019399;28;20501;-81
2022/05/11 12:45:52;;;;;;;2.60;2.10;;;;;;;;;;5010800;28;20468;-82
2022/05/11 12:48:28;;;;;;;3.67;2.27;;;;;;;;;;5020550;28;20486;-82
2022/05/11 12:51:06;;;;;;;3.20;2.40;;;;;;;;;;5011968;28;20498;-83
2022/05/11 12:53:34;;;;;;;3.30;2.23;;;;;;;;;;4992580;28;20408;-83
2022/05/11 12:56:09;;;;;;;7.10;2.40;;;;;;;;;;5021056;28;20458;-83
2022/05/11 12:58:36;;;;;;;7.13;2.47;;;;;;;;;;5009702;28;20563;-84
2022/05/11 13:01:05;;;;;;;5.40;3.10;;;;;;;;;;5016797;28;20573;-83
2022/05/11 13:03:37;;;;;;;4.23;2.20;;;;;;;;;;5016887;28;20495;-83
2022/05/11 13:06:08;;;;;;;3.40;2.20;;;;;;;;;;5017809;28;20605;-83
2022/05/11 13:08:41;;;;;;;4.13;2.10;;;;;;;;;;5006696;28;20738;-83
2022/05/11 13:11:08;;;;;;;4.17;1.97;;;;;;;;;;5014848;28;20775;-85
2022/05/11 13:13:36;;;;;;;5.20;2.20;;;;;;;;;;5016245;28;20407;-82
2022/05/11 13:16:05;;;;;;;5.17;2.20;;;;;;;;;;5007317;28;20472;-83
2022/05/11 13:18:32;;;;;;;5.13;2.50;;;;;;;;;;4989034;28;20403;-84
2022/05/11 13:21:00;;;;;;;6.67;1.90;;;;;;;;;;5014874;28;20409;-83
2022/05/11 13:23:31;;;;;;;5.47;2.20;;;;;;;;;;5013324;28;20892;-83
2022/05/11 13:25:59;;;;;;;7.53;2.10;;;;;;;;;;5021296;28;21002;-83
2022/05/11 13:28:27;;;;;;;3.80;2.27;;;;;;;;;;5005875;28;20874;-83
2022/05/11 13:31:01;;;;;;;3.60;2.13;;;;;;;;;;5016057;28;20468;-83
2022/05/11 13:33:30;;;;;;;3.97;2.30;;;;;;;;;;5005094;28;20404;-84
2022/05/11 13:36:12;;;;;;;3.23;2.43;;;;;;;;;;5004558;28;20436;-83
2022/05/11 13:38:38;;;;;;;3.43;1.90;;;;;;;;;;5023912;28;20411;-84
2022/05/11 13:41:07;;;;;;;4.60;2.80;;;;;;;;;;5015303;28;20423;-83
2022/05/11 13:43:35;;;;;;;3.30;2.50;;;;;;;;;;4997881;28;20442;-84
2022/05/11 13:46:07;;;;;;;7.97;2.90;;;;;;;;;;5022646;28;20958;-84
2022/05/11 13:48:44;;;;;;;3.07;2.20;;;;;;;;;;4984597;28;20419;-82
2022/05/11 13:51:29;;;;;;;5.17;2.40;;;;;;;;;;4992412;28;20431;-82
2022/05/11 13:53:57;;;;;;;4.37;2.23;;;;;;;;;;5020527;28;20741;-84
2022/05/11 13:56:28;;;;;;;4.50;2.27;;;;;;;;;;5003963;28;20516;-81
2022/05/11 13:59:03;;;;;;;3.13;2.27;;;;;;;;;;5013150;28;20757;-83
2022/05/11 14:01:40;;;;;;;3.80;2.03;;;;;;;;;;5012124;28;20880;-83
2022/05/11 14:04:07;;;;;;;5.47;2.13;;;;;;;;;;5003784;28;20414;-83
2022/05/11 14:06:34;;;;;;;5.10;2.60;;;;;;;;;;5015518;28;20997;-83
2022/05/11 14:09:01;;;;;;;5.70;2.37;;;;;;;;;;5007960;28;20403;-83
2022/05/11 14:14:02;;;;;;;5.40;1.87;;;;;;;;;;5059664;28;20836;-89
2022/05/11 14:16:30;;;;;;;3.43;1.97;;;;;;;;;;5062580;28;20436;-86
2022/05/11 14:18:57;;;;;;;11.33;2.30;;;;;;;;;;5063698;28;20412;-88
2022/05/11 14:21:23;;;;;;;4.63;2.50;;;;;;;;;;5065891;28;20421;-87
2022/05/11 14:23:49;;;;;;;7.10;2.03;;;;;;;;;;5073773;28;20425;-87
2022/05/11 14:26:16;;;;;;;5.10;2.13;;;;;;;;;;5074147;28;20448;-86
2022/05/11 14:28:42;;;;;;;3.93;2.23;;;;;;;;;;5064410;28;20450;-86
2022/05/11 14:31:12;;;;;;;4.80;2.50;;;;;;;;;;5062707;28;20475;-86
2022/05/11 14:33:38;;;;;;;2.60;1.90;;;;;;;;;;5063779;28;20413;-87
2022/05/11 14:36:07;;;;;;;4.40;2.07;;;;;;;;;;5062873;28;20398;-86
2022/05/11 14:38:33;;;;;;;3.90;2.33;;;;;;;;;;5063970;28;20435;-85
2022/05/11 14:40:59;;;;;;;4.20;2.43;;;;;;;;;;5063418;28;20409;-86
2022/05/11 14:43:29;;;;;;;6.70;2.03;;;;;;;;;;5064522;28;20452;-86
2022/05/11 14:45:56;;;;;;;2.63;1.70;;;;;;;;;;5064653;28;20455;-87
2022/05/11 14:48:24;;;;;;;5.03;2.13;;;;;;;;;;5046847;28;20417;-88
2022/05/11 14:50:50;;;;;;;3.97;2.50;;;;;;;;;;5065206;28;20436;-87
2022/05/11 14:53:16;;;;;;;3.73;2.00;;;;;;;;;;5064789;28;20421;-87
2022/05/11 14:55:42;;;;;;;5.47;2.20;;;;;;;;;;5047702;28;20460;-88
2022/05/11 15:03:38;;;;;;;6.07;2.17;;;;;;;;;;5064822;28;20484;-88
2022/05/11 15:06:04;;;;;;;2.53;1.80;;;;;;;;;;5064684;28;20449;-87
2022/05/11 15:08:30;;;;;;;3.90;2.07;;;;;;;;;;5061238;28;20413;-86
2022/05/11 15:13:42;;;;;;;3.27;2.37;;;;;;;;;;5062441;28;20444;-87
2022/05/11 15:16:09;;;;;;;5.03;2.30;;;;;;;;;;5063440;28;20398;-88
2022/05/11 15:18:35;;;;;;;2.53;1.67;;;;;;;;;;5045435;28;20503;-89
2022/05/11 15:21:01;;;;;;;4.30;1.83;;;;;;;;;;5062690;28;20793;-88
2022/05/11 15:23:27;;;;;;;3.80;2.57;;;;;;;;;;5046339;28;20438;-88
2022/05/11 15:25:54;;;;;;;2.87;2.13;;;;;;;;;;5063726;28;20445;-88
2022/05/11 15:28:20;;;;;;;2.57;1.97;;;;;;;;;;5045810;28;20421;-87
2022/05/11 15:30:46;;;;;;;3.30;1.93;;;;;;;;;;5064334;28;20765;-88
2022/05/11 15:33:17;;;;;;;4.47;2.30;;;;;;;;;;5064302;28;20439;-88
2022/05/11 15:35:44;;;;;;;3.17;2.30;;;;;;;;;;5064738;28;20404;-87
2022/05/11 15:38:10;;;;;;;7.13;2.10;;;;;;;;;;5063613;28;20429;-88
2022/05/11 15:40:37;;;;;;;4.17;1.90;;;;;;;;;;5046108;28;20486;-86
2022/05/11 15:43:03;;;;;;;5.10;2.80;;;;;;;;;;5045804;28;20506;-87